createdAt,value
2018-12-25T00:03:08.433Z,9.43
2018-12-25T00:05:38.027Z,9.30
2018-12-25T00:08:07.751Z,9.47
2018-12-25T00:10:56.398Z,9.07
2018-12-25T00:13:25.920Z,9.53
2018-12-25T00:15:55.510Z,9.57
2018-12-25T00:18:25.076Z,10.17
2018-12-25T00:20:54.661Z,10.27
2018-12-25T00:23:24.241Z,9.67
2018-12-25T00:25:54.427Z,10.20
2018-12-25T00:28:24.089Z,10.03
2018-12-25T00:30:53.733Z,10.53
2018-12-25T00:33:23.407Z,9.87
2018-12-25T00:35:53.022Z,9.93
2018-12-25T00:38:22.795Z,10.40
2018-12-25T00:40:52.428Z,10.63
2018-12-25T00:43:22.055Z,11.07
2018-12-25T00:45:51.764Z,10.23
2018-12-25T00:48:21.460Z,10.57
2018-12-25T00:50:51.078Z,10.53
2018-12-25T00:53:20.744Z,10.70
2018-12-25T00:55:50.464Z,10.40
2018-12-25T00:58:20.033Z,10.70
2018-12-25T01:00:49.691Z,10.37
2018-12-25T01:03:19.355Z,10.50
2018-12-25T01:05:48.939Z,10.10
2018-12-25T01:08:18.543Z,10.10
2018-12-25T01:10:48.138Z,11.03
2018-12-25T01:13:18.139Z,10.50
2018-12-25T01:15:47.837Z,10.30
2018-12-25T01:18:17.482Z,10.83
2018-12-25T01:20:47.263Z,10.83
2018-12-25T01:23:16.926Z,11.17
2018-12-25T01:25:46.497Z,9.90
2018-12-25T01:28:16.109Z,11.17
2018-12-25T01:30:45.697Z,10.07
2018-12-25T01:33:15.359Z,10.83
2018-12-25T01:35:45.030Z,10.10
2018-12-25T01:38:14.612Z,11.10
2018-12-25T01:40:44.212Z,11.10
2018-12-25T01:43:13.809Z,10.83
2018-12-25T01:45:43.373Z,10.83
2018-12-25T01:48:12.914Z,10.63
2018-12-25T01:50:42.877Z,10.47
2018-12-25T01:53:12.446Z,10.33
2018-12-25T01:55:42.032Z,10.10
2018-12-25T01:58:30.478Z,9.80
2018-12-25T02:01:00.085Z,10.57
2018-12-25T02:03:29.665Z,10.07
2018-12-25T02:05:59.289Z,9.80
2018-12-25T02:08:28.866Z,11.10
2018-12-25T02:10:58.436Z,10.13
2018-12-25T02:13:28.044Z,10.43
2018-12-25T02:18:45.987Z,10.63
2018-12-25T02:21:15.903Z,10.43
2018-12-25T02:23:45.528Z,10.43
2018-12-25T02:26:15.069Z,10.37
2018-12-25T02:28:44.663Z,10.03
2018-12-25T02:31:14.428Z,9.67
2018-12-25T02:33:44.281Z,9.53
2018-12-25T02:36:13.928Z,9.87
2018-12-25T02:38:43.534Z,10.00
2018-12-25T02:41:13.238Z,10.50
2018-12-25T02:43:42.845Z,9.97
2018-12-25T02:46:12.443Z,10.60
2018-12-25T02:48:42.018Z,10.23
2018-12-25T02:51:11.617Z,9.90
2018-12-25T02:53:41.181Z,8.93
2018-12-25T02:56:10.819Z,10.03
2018-12-25T02:58:59.591Z,10.13
2018-12-25T03:01:29.513Z,9.43
2018-12-25T03:03:59.062Z,9.37
2018-12-25T03:06:28.638Z,11.00
2018-12-25T03:08:58.130Z,9.77
2018-12-25T03:11:27.752Z,9.37
2018-12-25T03:13:57.338Z,9.37
2018-12-25T03:16:26.923Z,9.93
2018-12-25T03:18:56.563Z,9.50
2018-12-25T03:21:26.137Z,9.90
2018-12-25T03:23:55.748Z,9.27
2018-12-25T03:26:25.290Z,9.83
2018-12-25T03:28:54.959Z,9.23
2018-12-25T03:31:24.723Z,9.53
2018-12-25T03:33:54.869Z,8.77
2018-12-25T03:36:24.642Z,8.60
2018-12-25T03:38:54.437Z,8.57
2018-12-25T03:41:24.141Z,9.00
2018-12-25T03:46:29.339Z,8.43
2018-12-25T03:48:59.124Z,8.53
2018-12-25T03:51:29.091Z,8.97
2018-12-25T03:53:58.660Z,9.03
2018-12-25T03:56:28.212Z,8.93
2018-12-25T03:58:57.835Z,8.60
2018-12-25T04:04:15.835Z,8.70
2018-12-25T04:06:45.482Z,9.57
2018-12-25T04:09:15.203Z,7.90
2018-12-25T04:11:44.763Z,7.77
2018-12-25T04:14:14.302Z,8.07
2018-12-25T04:16:43.909Z,8.60
2018-12-25T04:19:13.457Z,7.30
2018-12-25T04:21:43.050Z,7.83
2018-12-25T04:24:12.979Z,8.40
2018-12-25T04:26:42.539Z,8.10
2018-12-25T04:29:12.161Z,8.00
2018-12-25T04:31:41.760Z,7.83
2018-12-25T04:34:11.382Z,7.83
2018-12-25T04:36:40.957Z,7.27
2018-12-25T04:39:10.598Z,7.40
2018-12-25T04:41:40.186Z,7.87
2018-12-25T04:44:09.751Z,7.60
2018-12-25T04:46:39.446Z,7.47
2018-12-25T04:49:09.004Z,7.03
2018-12-25T04:51:38.609Z,7.23
2018-12-25T04:54:08.158Z,7.43
2018-12-25T04:56:38.032Z,7.37
2018-12-25T05:01:42.819Z,7.20
2018-12-25T05:04:12.434Z,7.00
2018-12-25T05:07:01.028Z,7.37
2018-12-25T05:12:07.275Z,7.40
2018-12-25T05:14:36.898Z,6.97
2018-12-25T05:17:06.458Z,7.00
2018-12-25T05:19:35.993Z,6.53
2018-12-25T05:22:05.934Z,6.93
2018-12-25T05:24:35.640Z,7.07
2018-12-25T05:27:05.501Z,7.13
2018-12-25T05:29:35.245Z,6.87
2018-12-25T05:32:04.981Z,7.10
2018-12-25T05:34:34.665Z,6.87
2018-12-25T05:37:04.261Z,7.53
2018-12-25T05:39:33.998Z,7.60
2018-12-25T05:42:03.789Z,7.40
2018-12-25T05:44:33.600Z,8.00
2018-12-25T05:47:03.579Z,7.70
2018-12-25T05:49:33.273Z,7.67
2018-12-25T05:52:03.051Z,7.13
2018-12-25T05:54:32.771Z,7.87
2018-12-25T05:57:02.491Z,8.63
2018-12-25T05:59:32.109Z,7.53
2018-12-25T06:02:02.339Z,7.50
2018-12-25T06:04:32.078Z,7.57
2018-12-25T06:07:20.907Z,7.77
2018-12-25T06:09:50.855Z,7.63
2018-12-25T06:12:20.630Z,8.13
2018-12-25T06:14:50.310Z,7.63
2018-12-25T06:19:56.911Z,9.50
2018-12-25T06:22:26.617Z,7.80
2018-12-25T06:24:56.427Z,8.80
2018-12-25T06:27:26.150Z,8.73
2018-12-25T06:29:55.969Z,8.33
2018-12-25T06:32:25.826Z,8.43
2018-12-25T06:34:55.734Z,8.17
2018-12-25T06:37:26.005Z,9.07
2018-12-25T06:39:55.761Z,8.40
2018-12-25T06:42:25.607Z,7.90
2018-12-25T06:44:55.433Z,8.27
2018-12-25T06:47:44.107Z,8.93
2018-12-25T06:50:13.885Z,8.53
2018-12-25T06:52:43.656Z,8.97
2018-12-25T06:55:13.415Z,8.87
2018-12-25T06:57:43.112Z,8.93
2018-12-25T07:00:12.910Z,9.60
2018-12-25T07:05:31.306Z,9.70
2018-12-25T07:08:01.114Z,9.17
2018-12-25T07:10:30.817Z,9.33
2018-12-25T07:13:19.380Z,9.40
2018-12-25T07:15:49.131Z,9.17
2018-12-25T07:18:18.824Z,8.43
2018-12-25T07:20:48.674Z,9.17
2018-12-25T07:23:18.269Z,9.33
2018-12-25T07:26:06.885Z,8.77
2018-12-25T07:28:36.707Z,8.67
2018-12-25T07:31:25.146Z,9.50
2018-12-25T07:33:54.792Z,8.57
2018-12-25T07:36:24.680Z,9.10
2018-12-25T07:38:54.484Z,9.23
2018-12-25T07:41:43.374Z,9.40
2018-12-25T07:44:13.260Z,9.23
2018-12-25T07:46:42.992Z,9.87
2018-12-25T07:49:13.249Z,9.43
2018-12-25T07:51:42.982Z,9.13
2018-12-25T07:54:12.752Z,8.67
2018-12-25T07:56:42.602Z,9.27
2018-12-25T07:59:12.468Z,8.80
2018-12-25T08:02:01.041Z,8.97
2018-12-25T08:04:49.519Z,29.90
2018-12-25T08:07:19.014Z,9.43
2018-12-25T08:09:48.668Z,9.00
2018-12-25T08:12:18.233Z,9.47
2018-12-25T08:14:48.150Z,8.40
2018-12-25T08:17:17.755Z,10.20
2018-12-25T08:19:47.309Z,9.20
2018-12-25T08:22:17.055Z,9.27
2018-12-25T08:24:46.610Z,9.60
2018-12-25T08:27:16.259Z,10.43
2018-12-25T08:29:45.837Z,9.83
2018-12-25T08:32:15.434Z,13.83
2018-12-25T08:34:45.091Z,8.90
2018-12-25T08:37:14.976Z,9.87
2018-12-25T08:39:44.885Z,13.40
2018-12-25T08:42:14.446Z,9.63
2018-12-25T08:45:03.194Z,9.23
2018-12-25T08:47:33.144Z,9.10
2018-12-25T08:50:02.740Z,9.77
2018-12-25T08:52:32.488Z,10.03
2018-12-25T08:55:02.098Z,10.67
2018-12-25T08:57:31.764Z,10.80
2018-12-25T09:00:01.318Z,11.20
2018-12-25T09:02:30.967Z,12.73
2018-12-25T09:05:00.558Z,12.00
2018-12-25T09:07:49.221Z,11.03
2018-12-25T09:10:19.048Z,12.27
2018-12-25T09:12:48.806Z,15.27
2018-12-25T09:15:18.649Z,22.07
2018-12-25T09:17:48.240Z,16.53
2018-12-25T09:20:36.709Z,10.53
2018-12-25T09:23:06.428Z,9.87
2018-12-25T09:26:15.464Z,10.40
2018-12-25T09:28:45.221Z,9.77
2018-12-25T09:31:15.013Z,13.13
2018-12-25T09:34:03.437Z,10.63
2018-12-25T09:36:33.029Z,13.43
2018-12-25T09:41:51.362Z,15.47
2018-12-25T09:44:20.971Z,13.77
2018-12-25T09:49:46.124Z,19.37
2018-12-25T09:52:15.685Z,13.23
2018-12-25T09:54:45.231Z,27.33
2018-12-25T10:00:09.113Z,14.40
2018-12-25T10:02:38.644Z,24.40
2018-12-25T10:05:16.029Z,14.87
2018-12-25T10:07:45.624Z,13.03
2018-12-25T10:10:15.262Z,11.47
2018-12-25T10:12:44.824Z,11.07
2018-12-25T10:15:14.432Z,13.03
2018-12-25T10:17:43.947Z,10.73
2018-12-25T10:20:13.575Z,12.37
2018-12-25T10:22:43.561Z,10.93
2018-12-25T10:25:31.944Z,10.80
2018-12-25T10:28:01.634Z,10.23
2018-12-25T10:30:31.250Z,10.57
2018-12-25T10:33:00.805Z,10.63
2018-12-25T10:35:30.374Z,10.53
2018-12-25T10:38:00.028Z,10.63
2018-12-25T10:40:29.560Z,10.37
2018-12-25T10:42:59.200Z,9.00
2018-12-25T10:45:28.790Z,9.53
2018-12-25T10:47:58.560Z,9.47
2018-12-25T10:50:28.220Z,10.23
2018-12-25T10:53:16.699Z,9.17
2018-12-25T10:55:46.287Z,9.03
2018-12-25T10:58:15.912Z,10.50
2018-12-25T11:00:49.405Z,8.97
2018-12-25T11:03:18.949Z,8.73
2018-12-25T11:05:48.553Z,8.30
2018-12-25T11:08:18.125Z,9.13
2018-12-25T11:10:47.751Z,9.27
2018-12-25T11:13:17.331Z,18.73
2018-12-25T11:15:46.914Z,27.27
2018-12-25T11:18:16.499Z,20.40
2018-12-25T11:20:46.177Z,13.00
2018-12-25T11:23:15.804Z,17.97
2018-12-25T11:25:45.433Z,22.23
2018-12-25T11:28:34.209Z,17.10
2018-12-25T11:31:03.806Z,21.30
2018-12-25T11:33:33.500Z,13.50
2018-12-25T11:36:03.099Z,9.53
2018-12-25T11:38:32.621Z,10.00
2018-12-25T11:41:02.601Z,13.77
2018-12-25T11:43:32.188Z,11.73
2018-12-25T11:46:01.791Z,11.43
2018-12-25T11:48:31.329Z,10.30
2018-12-25T11:51:00.936Z,7.73
2018-12-25T11:53:30.523Z,10.20
2018-12-25T11:56:00.114Z,8.70
2018-12-25T11:58:29.840Z,7.30
2018-12-25T12:00:59.437Z,8.03
2018-12-25T12:03:29.256Z,7.43
2018-12-25T12:05:59.134Z,7.20
2018-12-25T12:08:28.688Z,9.47
2018-12-25T12:10:58.651Z,7.60
2018-12-25T12:13:28.275Z,9.20
2018-12-25T12:15:57.885Z,7.20
2018-12-25T12:18:27.590Z,7.47
2018-12-25T12:20:57.252Z,8.13
2018-12-25T12:23:26.913Z,6.87
2018-12-25T12:25:56.546Z,7.43
2018-12-25T12:28:26.249Z,6.33
2018-12-25T12:30:55.870Z,6.30
2018-12-25T12:33:25.476Z,6.10
2018-12-25T12:35:55.189Z,6.00
2018-12-25T12:38:24.897Z,5.33
2018-12-25T12:40:54.497Z,5.73
2018-12-25T12:43:24.096Z,6.40
2018-12-25T12:45:53.746Z,5.27
2018-12-25T12:48:23.346Z,5.33
2018-12-25T12:50:52.956Z,5.10
2018-12-25T12:53:22.869Z,5.60
2018-12-25T12:55:52.481Z,5.33
2018-12-25T12:58:22.119Z,5.30
2018-12-25T13:00:51.678Z,3.90
2018-12-25T13:03:21.252Z,4.77
2018-12-25T13:05:51.352Z,4.60
2018-12-25T13:08:20.962Z,3.93
2018-12-25T13:10:50.861Z,4.63
2018-12-25T13:13:20.442Z,4.13
2018-12-25T13:15:50.420Z,4.20
2018-12-25T13:18:20.030Z,3.77
2018-12-25T13:20:49.970Z,4.10
2018-12-25T13:23:19.651Z,4.30
2018-12-25T13:25:49.592Z,3.80
2018-12-25T13:28:19.172Z,3.73
2018-12-25T13:30:48.771Z,4.00
2018-12-25T13:33:18.793Z,4.50
2018-12-25T13:35:48.411Z,4.23
2018-12-25T13:38:18.047Z,3.77
2018-12-25T13:40:47.700Z,5.10
2018-12-25T13:43:17.259Z,4.57
2018-12-25T13:45:46.862Z,3.80
2018-12-25T13:48:16.865Z,7.93
2018-12-25T13:50:46.472Z,3.80
2018-12-25T13:53:16.067Z,3.73
2018-12-25T13:55:45.629Z,3.37
2018-12-25T13:58:15.237Z,3.00
2018-12-25T14:00:44.883Z,4.60
2018-12-25T14:03:33.446Z,3.50
2018-12-25T14:06:02.993Z,3.70
2018-12-25T14:08:32.616Z,10.63
2018-12-25T14:11:02.220Z,4.20
2018-12-25T14:13:31.816Z,4.73
2018-12-25T14:16:01.430Z,4.07
2018-12-25T14:18:31.036Z,3.63
2018-12-25T14:23:49.171Z,3.90
2018-12-25T14:26:18.731Z,6.67
2018-12-25T14:28:48.291Z,4.87
2018-12-25T14:31:17.828Z,11.93
2018-12-25T14:33:47.412Z,4.77
2018-12-25T14:36:16.970Z,4.53
2018-12-25T14:38:58.010Z,4.37
2018-12-25T14:41:27.601Z,5.20
2018-12-25T14:44:04.951Z,6.13
2018-12-25T14:46:28.902Z,4.77
2018-12-25T14:49:18.321Z,4.40
2018-12-25T14:52:07.827Z,6.10
2018-12-25T14:54:37.634Z,8.70
2018-12-25T14:57:07.163Z,5.40
2018-12-25T14:59:36.725Z,6.90
2018-12-25T15:02:06.562Z,13.43
2018-12-25T15:04:36.171Z,6.30
2018-12-25T15:07:05.714Z,5.43
2018-12-25T15:09:35.312Z,6.70
2018-12-25T15:12:05.353Z,9.13
2018-12-25T15:14:35.012Z,13.30
2018-12-25T15:17:04.654Z,9.57
2018-12-25T15:19:34.250Z,9.17
2018-12-25T15:22:03.925Z,45.83
2018-12-25T15:24:33.554Z,9.57
2018-12-25T15:27:03.133Z,23.97
2018-12-25T15:29:32.733Z,7.73
2018-12-25T15:32:02.461Z,9.93
2018-12-25T15:34:32.089Z,11.00
2018-12-25T15:37:02.816Z,11.60
2018-12-25T15:39:33.211Z,10.13
2018-12-25T15:42:02.832Z,10.97
2018-12-25T15:44:32.393Z,14.17
2018-12-25T15:47:02.007Z,12.07
2018-12-25T15:49:31.608Z,15.13
2018-12-25T15:52:01.181Z,34.37
2018-12-25T15:54:30.767Z,11.47
2018-12-25T15:57:02.199Z,9.60
2018-12-25T15:59:31.799Z,9.43
2018-12-25T16:02:01.493Z,9.17
2018-12-25T16:04:31.093Z,9.50
2018-12-25T16:07:00.654Z,9.90
2018-12-25T16:09:30.227Z,9.77
2018-12-25T16:11:59.804Z,11.10
2018-12-25T16:14:29.375Z,9.40
2018-12-25T16:16:59.015Z,11.90
2018-12-25T16:19:28.660Z,14.27
2018-12-25T16:21:58.312Z,11.80
2018-12-25T16:24:27.964Z,11.93
2018-12-25T16:26:57.596Z,16.00
2018-12-25T16:29:27.254Z,17.23
2018-12-25T16:34:45.707Z,20.23
2018-12-25T16:37:15.277Z,10.13
2018-12-25T16:39:44.875Z,12.20
2018-12-25T16:42:14.477Z,14.23
2018-12-25T16:44:44.055Z,17.83
2018-12-25T16:47:13.599Z,12.23
2018-12-25T16:49:43.186Z,12.37
2018-12-25T16:52:12.833Z,10.67
2018-12-25T16:54:42.517Z,17.23
2018-12-25T16:57:31.444Z,13.57
2018-12-25T17:00:20.075Z,11.40
2018-12-25T17:02:49.826Z,12.87
2018-12-25T17:05:19.407Z,13.90
2018-12-25T17:08:07.995Z,12.47
2018-12-25T17:10:37.862Z,14.10
2018-12-25T17:13:07.451Z,11.77
2018-12-25T17:15:37.179Z,12.20
2018-12-25T17:18:06.797Z,12.53
2018-12-25T17:20:36.365Z,11.33
2018-12-25T17:23:05.954Z,11.70
2018-12-25T17:25:35.504Z,12.40
2018-12-25T17:28:05.108Z,10.60
2018-12-25T17:30:34.652Z,11.30
2018-12-25T17:33:04.301Z,11.97
2018-12-25T17:35:52.870Z,12.27
2018-12-25T17:38:22.503Z,11.43
2018-12-25T17:40:52.430Z,11.37
2018-12-25T17:43:22.519Z,11.97
2018-12-25T17:45:52.091Z,11.43
2018-12-25T17:48:21.691Z,11.17
2018-12-25T17:50:51.296Z,15.57
2018-12-25T17:53:20.905Z,16.17
2018-12-25T17:55:50.612Z,14.20
2018-12-25T17:58:20.482Z,15.70
2018-12-25T18:00:50.063Z,12.70
2018-12-25T18:03:19.681Z,12.03
2018-12-25T18:05:49.409Z,11.97
2018-12-25T18:08:18.974Z,11.93
2018-12-25T18:10:48.463Z,12.27
2018-12-25T18:13:18.100Z,12.00
2018-12-25T18:15:47.744Z,12.47
2018-12-25T18:18:36.293Z,12.30
2018-12-25T18:21:24.716Z,12.27
2018-12-25T18:23:54.346Z,12.63
2018-12-25T18:26:23.926Z,12.77
2018-12-25T18:28:53.516Z,13.07
2018-12-25T18:31:23.321Z,13.47
2018-12-25T18:33:53.250Z,14.10
2018-12-25T18:36:23.007Z,12.93
2018-12-25T18:38:52.591Z,12.83
2018-12-25T18:41:22.635Z,12.80
2018-12-25T18:43:52.332Z,12.53
2018-12-25T18:46:22.099Z,13.13
2018-12-25T18:49:10.725Z,13.00
2018-12-25T18:51:40.321Z,12.90
2018-12-25T18:54:10.158Z,12.63
2018-12-25T18:56:39.787Z,11.70
2018-12-25T18:59:09.493Z,11.33
2018-12-25T19:01:39.220Z,12.67
2018-12-25T19:04:08.844Z,12.20
2018-12-25T19:06:38.495Z,11.53
2018-12-25T19:09:08.682Z,12.50
2018-12-25T19:11:40.149Z,12.40
2018-12-25T19:14:28.694Z,12.13
2018-12-25T19:16:58.387Z,12.27
2018-12-25T19:19:46.960Z,12.50
2018-12-25T19:24:54.005Z,13.10
2018-12-25T19:27:23.594Z,12.23
2018-12-25T19:29:53.248Z,12.43
2018-12-25T19:32:22.968Z,11.67
2018-12-25T19:34:52.544Z,13.37
2018-12-25T19:37:41.537Z,12.70
2018-12-25T19:40:11.361Z,13.00
2018-12-25T19:42:43.682Z,13.20
2018-12-25T19:45:13.399Z,15.10
2018-12-25T19:47:43.030Z,14.90
2018-12-25T19:50:12.845Z,14.33
2018-12-25T19:52:42.415Z,14.17
2018-12-25T19:55:12.145Z,14.30
2018-12-25T19:57:41.862Z,15.50
2018-12-25T20:00:13.280Z,14.87
2018-12-25T20:02:43.717Z,15.83
2018-12-25T20:05:51.354Z,15.30
2018-12-25T20:08:58.831Z,15.77
2018-12-25T20:12:06.680Z,14.40
2018-12-25T20:15:14.248Z,16.60
2018-12-25T20:18:21.772Z,15.37
2018-12-25T20:21:20.180Z,16.07
2018-12-25T20:24:27.765Z,16.10
2018-12-25T20:27:28.387Z,15.87
2018-12-25T20:30:35.969Z,16.17
2018-12-25T20:33:43.569Z,17.17
2018-12-25T20:36:51.250Z,15.53
2018-12-25T20:39:58.722Z,15.27
2018-12-25T20:43:06.248Z,15.57
2018-12-25T20:46:13.723Z,15.77
2018-12-25T20:49:32.801Z,16.90
2018-12-25T20:52:40.888Z,14.47
2018-12-25T20:55:48.456Z,15.27
2018-12-25T20:58:56.000Z,15.33
2018-12-25T21:02:03.425Z,14.80
2018-12-25T21:05:11.144Z,15.20
2018-12-25T21:11:42.769Z,14.93
2018-12-25T21:14:50.774Z,15.70
2018-12-25T21:17:58.266Z,14.47
2018-12-25T21:21:20.546Z,14.63
2018-12-25T21:24:15.798Z,14.30
2018-12-25T21:27:23.341Z,16.27
2018-12-25T21:30:12.057Z,22.30
2018-12-25T21:32:43.428Z,15.87
2018-12-25T21:35:16.784Z,15.47
2018-12-25T21:38:25.604Z,14.63
2018-12-25T21:41:34.404Z,14.77
2018-12-25T21:44:43.202Z,15.40
2018-12-25T21:47:12.920Z,15.93
2018-12-25T21:50:23.798Z,16.73
2018-12-25T21:53:13.032Z,15.00
2018-12-25T21:55:42.897Z,15.40
2018-12-25T21:58:12.665Z,15.67
2018-12-25T22:03:50.973Z,15.40
2018-12-25T22:06:20.926Z,15.80
2018-12-25T22:11:41.566Z,15.70
2018-12-25T22:14:30.415Z,16.10
2018-12-25T22:17:19.170Z,15.13
2018-12-25T22:19:49.233Z,14.93
2018-12-25T22:22:19.218Z,15.53
2018-12-25T22:24:48.815Z,16.07
2018-12-25T22:27:18.459Z,15.27
2018-12-25T22:29:48.412Z,15.20
2018-12-25T22:32:17.957Z,16.03
2018-12-25T22:34:47.498Z,15.97
2018-12-25T22:37:17.746Z,15.50
2018-12-25T22:39:47.756Z,15.67
2018-12-25T22:42:17.331Z,16.13
2018-12-25T22:45:26.172Z,15.27
2018-12-25T22:51:06.252Z,15.50
2018-12-25T22:56:46.088Z,15.80
2018-12-25T22:59:15.657Z,16.30
2018-12-25T23:01:45.251Z,16.03
2018-12-25T23:04:14.813Z,16.53
2018-12-25T23:06:44.394Z,15.57
2018-12-25T23:09:16.650Z,16.37
2018-12-25T23:11:46.240Z,15.83
2018-12-25T23:14:15.780Z,16.10
2018-12-25T23:16:45.310Z,17.43
2018-12-25T23:19:15.084Z,15.53
2018-12-25T23:24:19.313Z,16.73
2018-12-25T23:29:23.376Z,15.63
2018-12-25T23:31:53.106Z,19.67
2018-12-25T23:34:22.619Z,21.63
2018-12-25T23:39:40.798Z,19.43
2018-12-25T23:42:10.365Z,18.93
2018-12-25T23:44:40.036Z,16.17
2018-12-25T23:47:28.568Z,20.70
2018-12-25T23:49:58.174Z,22.63
2018-12-25T23:52:27.905Z,20.30
2018-12-25T23:54:58.939Z,21.63
2018-12-25T23:57:29.218Z,16.23
2018-12-25T23:59:58.917Z,19.77
